createdAt,value
2018-02-27T00:02:10.583Z,13.20
2018-02-27T00:04:38.090Z,13.67
2018-02-27T00:07:07.376Z,13.47
2018-02-27T00:09:34.909Z,14.00
2018-02-27T00:12:02.403Z,12.80
2018-02-27T00:14:29.877Z,13.27
2018-02-27T00:16:57.399Z,13.33
2018-02-27T00:19:24.894Z,12.97
2018-02-27T00:21:52.501Z,12.93
2018-02-27T00:24:19.985Z,13.70
2018-02-27T00:26:47.465Z,13.70
2018-02-27T00:29:14.969Z,12.30
2018-02-27T00:31:42.529Z,13.50
2018-02-27T00:34:09.988Z,13.07
2018-02-27T00:36:37.557Z,12.47
2018-02-27T00:39:05.079Z,13.07
2018-02-27T00:41:32.567Z,12.80
2018-02-27T00:44:05.053Z,11.33
2018-02-27T00:46:32.571Z,11.40
2018-02-27T00:49:00.033Z,12.30
2018-02-27T00:51:27.507Z,12.90
2018-02-27T00:53:55.855Z,11.73
2018-02-27T00:56:23.316Z,12.67
2018-02-27T00:58:51.485Z,11.83
2018-02-27T01:01:18.966Z,13.07
2018-02-27T01:03:46.464Z,12.27
2018-02-27T01:06:13.949Z,11.80
2018-02-27T01:08:41.423Z,12.47
2018-02-27T01:11:08.960Z,11.90
2018-02-27T01:13:36.441Z,12.10
2018-02-27T01:16:03.989Z,12.70
2018-02-27T01:18:31.433Z,11.70
2018-02-27T01:20:58.889Z,12.00
2018-02-27T01:23:26.348Z,11.70
2018-02-27T01:25:53.849Z,11.90
2018-02-27T01:28:21.331Z,12.17
2018-02-27T01:30:48.818Z,11.90
2018-02-27T01:33:16.311Z,12.50
2018-02-27T01:35:43.829Z,12.63
2018-02-27T01:38:11.333Z,12.47
2018-02-27T01:40:39.023Z,11.53
2018-02-27T01:43:06.518Z,12.00
2018-02-27T01:45:34.017Z,12.23
2018-02-27T01:48:01.495Z,12.03
2018-02-27T01:50:29.025Z,12.47
2018-02-27T01:52:56.623Z,11.13
2018-02-27T01:55:24.097Z,11.90
2018-02-27T01:57:51.641Z,11.70
2018-02-27T02:00:19.119Z,12.40
2018-02-27T02:02:46.637Z,11.83
2018-02-27T02:05:14.115Z,11.83
2018-02-27T02:07:41.680Z,12.93
2018-02-27T02:10:09.163Z,11.97
2018-02-27T02:12:36.644Z,12.03
2018-02-27T02:15:04.099Z,11.37
2018-02-27T02:17:31.643Z,12.77
2018-02-27T02:19:59.083Z,12.13
2018-02-27T02:22:26.654Z,11.87
2018-02-27T02:24:54.112Z,11.53
2018-02-27T02:27:21.595Z,11.93
2018-02-27T02:29:49.148Z,12.17
2018-02-27T02:32:16.686Z,12.10
2018-02-27T02:34:44.183Z,11.33
2018-02-27T02:37:11.676Z,12.37
2018-02-27T02:39:39.157Z,11.63
2018-02-27T02:42:24.452Z,12.53
2018-02-27T02:44:52.918Z,11.73
2018-02-27T02:47:20.370Z,13.07
2018-02-27T02:49:47.829Z,11.50
2018-02-27T02:52:15.305Z,12.90
2018-02-27T02:54:42.832Z,11.20
2018-02-27T02:57:10.343Z,12.27
2018-02-27T02:59:37.898Z,13.77
2018-02-27T03:02:05.374Z,12.63
2018-02-27T03:04:32.858Z,12.67
2018-02-27T03:07:00.327Z,11.93
2018-02-27T03:09:27.842Z,11.83
2018-02-27T03:11:55.346Z,12.73
2018-02-27T03:14:22.817Z,13.10
2018-02-27T03:16:50.294Z,13.03
2018-02-27T03:19:17.818Z,11.13
2018-02-27T03:21:45.292Z,12.33
2018-02-27T03:24:12.756Z,11.80
2018-02-27T03:26:40.474Z,11.33
2018-02-27T03:29:07.982Z,12.57
2018-02-27T03:31:35.469Z,12.30
2018-02-27T03:34:02.948Z,10.83
2018-02-27T03:36:30.501Z,13.10
2018-02-27T03:38:57.954Z,13.23
2018-02-27T03:41:25.450Z,13.07
2018-02-27T03:43:52.915Z,12.20
2018-02-27T03:46:20.373Z,12.17
2018-02-27T03:48:47.938Z,12.63
2018-02-27T03:51:15.417Z,12.07
2018-02-27T03:53:42.856Z,13.23
2018-02-27T03:56:10.365Z,12.80
2018-02-27T03:58:37.820Z,12.83
2018-02-27T04:01:05.321Z,11.90
2018-02-27T04:03:32.788Z,11.27
2018-02-27T04:06:00.235Z,12.13
2018-02-27T04:08:27.723Z,12.27
2018-02-27T04:10:55.226Z,12.23
2018-02-27T04:13:22.839Z,13.23
2018-02-27T04:15:50.328Z,12.13
2018-02-27T04:18:17.804Z,13.20
2018-02-27T04:20:52.114Z,12.23
2018-02-27T04:23:19.624Z,11.87
2018-02-27T04:25:47.088Z,12.70
2018-02-27T04:28:14.552Z,13.17
2018-02-27T04:30:42.042Z,13.53
2018-02-27T04:33:09.512Z,13.53
2018-02-27T04:35:36.960Z,12.33
2018-02-27T04:38:04.460Z,12.47
2018-02-27T04:40:31.932Z,12.03
2018-02-27T04:42:59.378Z,12.30
2018-02-27T04:45:26.880Z,11.87
2018-02-27T04:47:54.472Z,12.10
2018-02-27T04:50:21.951Z,11.83
2018-02-27T04:52:49.432Z,11.93
2018-02-27T04:55:16.926Z,12.03
2018-02-27T04:57:44.433Z,11.57
2018-02-27T05:00:11.894Z,12.03
2018-02-27T05:02:39.394Z,11.63
2018-02-27T05:05:06.970Z,14.20
2018-02-27T05:07:34.448Z,12.97
2018-02-27T05:10:01.913Z,13.03
2018-02-27T05:12:29.416Z,12.70
2018-02-27T05:14:56.889Z,12.67
2018-02-27T05:17:24.384Z,12.73
2018-02-27T05:19:51.870Z,12.50
2018-02-27T05:22:19.352Z,14.07
2018-02-27T05:24:46.848Z,13.00
2018-02-27T05:27:14.373Z,13.10
2018-02-27T05:29:41.873Z,12.80
2018-02-27T05:32:09.346Z,13.03
2018-02-27T05:34:36.950Z,13.63
2018-02-27T05:37:04.495Z,13.33
2018-02-27T05:39:31.970Z,13.13
2018-02-27T05:41:59.451Z,12.67
2018-02-27T05:44:27.860Z,12.97
2018-02-27T05:46:55.493Z,14.17
2018-02-27T05:49:23.022Z,13.40
2018-02-27T05:51:50.585Z,13.10
2018-02-27T05:54:18.082Z,13.70
2018-02-27T05:56:45.589Z,12.43
2018-02-27T05:59:14.884Z,14.17
2018-02-27T06:01:42.372Z,13.47
2018-02-27T06:04:09.878Z,13.23
2018-02-27T06:06:37.360Z,14.07
2018-02-27T06:09:04.874Z,14.30
2018-02-27T06:11:32.382Z,14.50
2018-02-27T06:13:59.853Z,15.27
2018-02-27T06:16:27.328Z,15.27
2018-02-27T06:18:54.802Z,15.10
2018-02-27T06:21:22.345Z,14.43
2018-02-27T06:23:49.908Z,14.93
2018-02-27T06:26:17.379Z,14.97
2018-02-27T06:28:44.849Z,18.67
2018-02-27T06:31:12.363Z,19.53
2018-02-27T06:33:39.862Z,20.37
2018-02-27T06:36:07.356Z,18.90
2018-02-27T06:38:34.842Z,20.57
2018-02-27T06:41:02.348Z,16.73
2018-02-27T06:43:29.844Z,18.40
2018-02-27T06:45:57.350Z,18.27
2018-02-27T06:48:24.866Z,16.73
2018-02-27T06:50:52.366Z,16.27
2018-02-27T06:53:20.033Z,16.07
2018-02-27T06:55:47.544Z,16.43
2018-02-27T06:58:15.012Z,16.70
2018-02-27T07:00:42.479Z,16.60
2018-02-27T07:03:09.987Z,16.33
2018-02-27T07:05:37.560Z,17.40
2018-02-27T07:08:05.055Z,17.63
2018-02-27T07:10:32.509Z,18.10
2018-02-27T07:12:59.986Z,18.70
2018-02-27T07:15:27.473Z,17.90
2018-02-27T07:17:54.965Z,17.50
2018-02-27T07:20:22.536Z,16.73
2018-02-27T07:22:50.037Z,17.17
2018-02-27T07:25:17.544Z,17.73
2018-02-27T07:27:45.046Z,16.53
2018-02-27T07:30:12.510Z,17.77
2018-02-27T07:32:39.980Z,16.40
2018-02-27T07:35:07.487Z,16.83
2018-02-27T07:37:34.964Z,18.57
2018-02-27T07:40:02.594Z,15.27
2018-02-27T07:42:30.162Z,16.90
2018-02-27T07:44:57.745Z,17.20
2018-02-27T07:47:25.316Z,16.53
2018-02-27T07:49:52.792Z,17.57
2018-02-27T07:52:20.392Z,17.00
2018-02-27T07:54:52.865Z,16.93
2018-02-27T07:57:20.372Z,17.63
2018-02-27T07:59:47.892Z,17.57
2018-02-27T08:02:15.402Z,17.37
2018-02-27T08:04:43.096Z,16.47
2018-02-27T08:07:10.580Z,18.80
2018-02-27T08:09:38.080Z,16.60
2018-02-27T08:12:05.541Z,16.60
2018-02-27T08:14:33.307Z,17.63
2018-02-27T08:17:00.887Z,17.03
2018-02-27T08:19:28.364Z,17.70
2018-02-27T08:21:55.967Z,16.43
2018-02-27T08:24:23.440Z,17.17
2018-02-27T08:26:51.105Z,15.77
2018-02-27T08:29:18.646Z,16.97
2018-02-27T08:31:46.135Z,15.17
2018-02-27T08:34:18.593Z,15.60
2018-02-27T08:36:46.120Z,15.53
2018-02-27T08:39:13.667Z,16.00
2018-02-27T08:41:41.131Z,14.17
2018-02-27T08:44:08.635Z,14.33
2018-02-27T08:46:36.196Z,15.27
2018-02-27T08:49:03.709Z,16.33
2018-02-27T08:51:31.172Z,15.00
2018-02-27T08:53:58.775Z,13.83
2018-02-27T08:56:26.275Z,12.73
2018-02-27T08:58:53.854Z,12.67
2018-02-27T09:01:21.350Z,13.53
2018-02-27T09:03:49.181Z,13.47
2018-02-27T09:06:16.835Z,12.13
2018-02-27T09:08:44.316Z,12.47
2018-02-27T09:11:11.917Z,12.67
2018-02-27T09:13:39.463Z,11.90
2018-02-27T09:16:07.077Z,11.53
2018-02-27T09:18:34.574Z,11.10
2018-02-27T09:21:02.075Z,10.67
2018-02-27T09:23:29.541Z,11.03
2018-02-27T09:25:57.961Z,11.53
2018-02-27T09:28:25.448Z,9.80
2018-02-27T09:30:53.037Z,10.10
2018-02-27T09:33:20.538Z,9.43
2018-02-27T09:35:48.176Z,9.17
2018-02-27T09:38:15.680Z,8.57
2018-02-27T09:43:25.257Z,9.30
2018-02-27T09:45:52.737Z,8.87
2018-02-27T09:48:20.227Z,8.93
2018-02-27T09:50:47.662Z,8.50
2018-02-27T09:53:16.298Z,8.47
2018-02-27T09:55:43.814Z,9.00
2018-02-27T09:58:11.283Z,10.07
2018-02-27T10:00:40.027Z,11.20
2018-02-27T10:03:07.529Z,10.70
2018-02-27T10:05:34.996Z,10.20
2018-02-27T10:08:02.539Z,10.02
2018-02-27T10:10:30.148Z,10.27
2018-02-27T10:12:57.706Z,10.45
2018-02-27T10:15:25.195Z,9.73
2018-02-27T10:17:52.707Z,9.60
2018-02-27T10:20:20.181Z,9.02
2018-02-27T10:22:47.632Z,8.93
2018-02-27T10:25:15.084Z,8.10
2018-02-27T10:27:42.636Z,8.65
2018-02-27T10:30:10.191Z,8.52
2018-02-27T10:32:37.706Z,8.40
2018-02-27T10:35:05.239Z,8.50
2018-02-27T10:37:32.767Z,7.97
2018-02-27T10:40:00.278Z,7.95
2018-02-27T10:42:27.718Z,8.43
2018-02-27T10:44:55.184Z,7.80
2018-02-27T10:47:24.008Z,7.93
2018-02-27T10:49:53.151Z,7.90
2018-02-27T10:52:20.623Z,8.53
2018-02-27T10:54:53.116Z,8.03
2018-02-27T10:57:20.611Z,7.63
2018-02-27T10:59:48.054Z,9.07
2018-02-27T11:02:15.570Z,8.30
2018-02-27T11:04:43.072Z,7.77
2018-02-27T11:07:10.534Z,7.83
2018-02-27T11:09:38.022Z,8.57
2018-02-27T11:12:05.599Z,8.40
2018-02-27T11:14:33.152Z,8.30
2018-02-27T11:17:00.733Z,7.17
2018-02-27T11:19:28.203Z,7.37
2018-02-27T11:21:55.668Z,7.03
2018-02-27T11:24:23.264Z,7.43
2018-02-27T11:26:50.746Z,7.57
2018-02-27T11:29:18.248Z,7.20
2018-02-27T11:31:45.811Z,7.90
2018-02-27T11:34:13.295Z,7.87
2018-02-27T11:36:40.796Z,7.47
2018-02-27T11:39:09.802Z,7.10
2018-02-27T11:41:37.276Z,7.97
2018-02-27T11:44:04.760Z,7.77
2018-02-27T11:46:32.224Z,7.80
2018-02-27T11:48:59.775Z,7.90
2018-02-27T11:51:27.262Z,7.73
2018-02-27T11:53:54.952Z,7.80
2018-02-27T11:56:22.523Z,7.47
2018-02-27T11:58:50.085Z,7.50
2018-02-27T12:01:17.540Z,7.03
2018-02-27T12:03:45.344Z,7.73
2018-02-27T12:06:12.937Z,8.43
2018-02-27T12:08:40.474Z,9.57
2018-02-27T12:11:08.132Z,7.43
2018-02-27T12:13:35.587Z,7.40
2018-02-27T12:16:03.114Z,7.47
2018-02-27T12:18:30.698Z,8.00
2018-02-27T12:20:58.179Z,7.60
2018-02-27T12:23:25.854Z,8.10
2018-02-27T12:25:54.330Z,7.90
2018-02-27T12:28:21.842Z,8.07
2018-02-27T12:30:49.434Z,7.83
2018-02-27T12:33:16.994Z,7.90
2018-02-27T12:35:44.500Z,7.43
2018-02-27T12:38:11.978Z,7.77
2018-02-27T12:40:39.481Z,8.13
2018-02-27T12:43:06.968Z,8.00
2018-02-27T12:45:34.486Z,7.63
2018-02-27T12:48:01.966Z,7.70
2018-02-27T12:50:30.029Z,7.43
2018-02-27T12:52:57.530Z,7.03
2018-02-27T12:55:25.230Z,7.90
2018-02-27T12:57:52.715Z,7.30
2018-02-27T13:00:20.258Z,7.37
2018-02-27T13:02:48.511Z,6.80
2018-02-27T13:05:16.035Z,7.40
2018-02-27T13:07:43.694Z,7.67
2018-02-27T13:10:11.189Z,9.17
2018-02-27T13:12:38.759Z,8.97
2018-02-27T13:15:06.242Z,6.80
2018-02-27T13:17:33.757Z,6.63
2018-02-27T13:20:01.244Z,6.63
2018-02-27T13:22:28.702Z,7.40
2018-02-27T13:24:56.174Z,6.80
2018-02-27T13:27:23.876Z,6.67
2018-02-27T13:29:51.540Z,6.70
2018-02-27T13:32:19.100Z,6.80
2018-02-27T13:34:46.598Z,6.23
2018-02-27T13:37:14.115Z,6.03
2018-02-27T13:39:41.646Z,6.37
2018-02-27T13:42:09.172Z,6.17
2018-02-27T13:44:36.662Z,6.30
2018-02-27T13:47:04.576Z,6.70
2018-02-27T13:49:32.092Z,7.37
2018-02-27T13:51:59.795Z,7.13
2018-02-27T13:54:27.369Z,6.53
2018-02-27T13:56:54.882Z,6.60
2018-02-27T13:59:22.430Z,6.30
2018-02-27T14:01:50.010Z,5.83
2018-02-27T14:04:17.464Z,5.93
2018-02-27T14:06:45.032Z,6.50
2018-02-27T14:09:12.483Z,6.20
2018-02-27T14:11:39.977Z,6.17
2018-02-27T14:14:07.441Z,6.30
2018-02-27T14:16:35.048Z,6.40
2018-02-27T14:19:02.519Z,6.17
2018-02-27T14:21:30.217Z,6.60
2018-02-27T14:23:57.789Z,5.77
2018-02-27T14:29:07.078Z,7.00
2018-02-27T14:31:34.656Z,6.30
2018-02-27T14:34:02.162Z,6.67
2018-02-27T14:36:29.670Z,6.90
2018-02-27T14:38:57.166Z,7.63
2018-02-27T14:41:24.694Z,6.93
2018-02-27T14:43:52.346Z,6.67
2018-02-27T14:46:19.918Z,6.73
2018-02-27T14:48:47.441Z,6.60
2018-02-27T14:51:15.082Z,6.57
2018-02-27T14:53:42.575Z,5.70
2018-02-27T14:56:10.118Z,6.37
2018-02-27T14:58:37.580Z,6.17
2018-02-27T15:01:05.567Z,5.80
2018-02-27T15:03:38.060Z,6.70
2018-02-27T15:06:05.708Z,6.20
2018-02-27T15:08:33.150Z,6.13
2018-02-27T15:11:00.990Z,6.30
2018-02-27T15:13:28.554Z,6.47
2018-02-27T15:15:56.049Z,6.77
2018-02-27T15:18:23.574Z,6.60
2018-02-27T15:20:51.076Z,7.03
2018-02-27T15:23:18.581Z,6.47
2018-02-27T15:25:46.235Z,7.20
2018-02-27T15:28:13.802Z,7.90
2018-02-27T15:30:41.400Z,8.20
2018-02-27T15:33:08.870Z,7.70
2018-02-27T15:35:36.415Z,7.73
2018-02-27T15:38:03.899Z,7.47
2018-02-27T15:40:31.380Z,8.20
2018-02-27T15:42:58.922Z,6.90
2018-02-27T15:45:26.446Z,7.57
2018-02-27T15:47:53.938Z,7.20
2018-02-27T15:50:21.451Z,7.43
2018-02-27T15:52:48.997Z,6.70
2018-02-27T15:55:16.670Z,8.80
2018-02-27T15:57:44.394Z,8.03
2018-02-27T16:00:11.903Z,9.27
2018-02-27T16:02:39.406Z,7.07
2018-02-27T16:05:07.064Z,7.67
2018-02-27T16:07:34.576Z,8.03
2018-02-27T16:10:02.132Z,7.50
2018-02-27T16:12:29.699Z,7.47
2018-02-27T16:14:57.290Z,7.53
2018-02-27T16:17:24.794Z,7.10
2018-02-27T16:19:52.384Z,8.23
2018-02-27T16:22:20.758Z,8.03
2018-02-27T16:24:48.259Z,8.60
2018-02-27T16:27:15.781Z,9.33
2018-02-27T16:29:43.275Z,8.57
2018-02-27T16:32:11.096Z,8.43
2018-02-27T16:34:38.650Z,8.33
2018-02-27T16:37:06.240Z,8.77
2018-02-27T16:39:33.865Z,8.50
2018-02-27T16:42:01.384Z,8.43
2018-02-27T16:44:28.885Z,8.60
2018-02-27T16:46:56.682Z,9.27
2018-02-27T16:49:24.209Z,7.97
2018-02-27T16:51:51.731Z,8.63
2018-02-27T16:54:19.233Z,8.23
2018-02-27T16:56:46.767Z,7.90
2018-02-27T16:59:14.358Z,8.50
2018-02-27T17:01:41.842Z,8.80
2018-02-27T17:04:09.382Z,9.03
2018-02-27T17:06:36.849Z,8.97
2018-02-27T17:09:04.381Z,8.93
2018-02-27T17:11:31.898Z,7.87
2018-02-27T17:13:59.427Z,9.20
2018-02-27T17:16:27.000Z,8.67
2018-02-27T17:18:54.499Z,8.53
2018-02-27T17:21:21.976Z,8.50
2018-02-27T17:23:49.521Z,8.67
2018-02-27T17:26:17.020Z,9.07
2018-02-27T17:28:44.518Z,8.30
2018-02-27T17:31:12.066Z,9.23
2018-02-27T17:33:39.624Z,9.43
2018-02-27T17:36:07.200Z,9.93
2018-02-27T17:38:34.726Z,9.77
2018-02-27T17:41:02.272Z,9.53
2018-02-27T17:43:29.874Z,9.03
2018-02-27T17:45:58.034Z,9.43
2018-02-27T17:48:25.558Z,9.17
2018-02-27T17:50:53.036Z,9.20
2018-02-27T17:53:20.536Z,9.13
2018-02-27T17:55:48.082Z,9.73
2018-02-27T17:58:15.853Z,9.67
2018-02-27T18:00:43.395Z,9.10
2018-02-27T18:03:10.943Z,10.40
2018-02-27T18:05:38.499Z,10.10
2018-02-27T18:08:05.990Z,9.53
2018-02-27T18:10:33.459Z,9.00
2018-02-27T18:13:01.044Z,9.53
2018-02-27T18:15:28.588Z,9.30
2018-02-27T18:17:56.119Z,10.00
2018-02-27T18:20:23.592Z,8.90
2018-02-27T18:22:51.169Z,10.53
2018-02-27T18:25:18.669Z,10.40
2018-02-27T18:27:46.218Z,10.40
2018-02-27T18:30:15.352Z,10.07
2018-02-27T18:32:43.320Z,11.00
2018-02-27T18:35:11.498Z,9.90
2018-02-27T18:37:39.160Z,9.10
2018-02-27T18:40:06.881Z,11.10
2018-02-27T18:42:34.576Z,11.63
2018-02-27T18:45:02.129Z,11.07
2018-02-27T18:47:29.622Z,10.10
2018-02-27T18:49:57.133Z,10.63
2018-02-27T18:52:24.632Z,10.53
2018-02-27T18:54:52.169Z,10.60
2018-02-27T18:57:19.713Z,10.63
2018-02-27T18:59:47.215Z,10.57
2018-02-27T19:02:14.805Z,11.73
2018-02-27T19:04:42.521Z,11.57
2018-02-27T19:07:10.030Z,12.03
2018-02-27T19:09:37.681Z,11.33
2018-02-27T19:12:05.218Z,12.37
2018-02-27T19:14:32.755Z,11.80
2018-02-27T19:17:00.293Z,11.90
2018-02-27T19:19:27.766Z,12.83
2018-02-27T19:21:55.249Z,11.70
2018-02-27T19:24:22.731Z,12.13
2018-02-27T19:26:50.239Z,12.40
2018-02-27T19:29:17.738Z,13.07
2018-02-27T19:31:45.256Z,12.97
2018-02-27T19:34:12.837Z,12.50
2018-02-27T19:36:40.362Z,13.87
2018-02-27T19:39:07.932Z,12.80
2018-02-27T19:41:35.402Z,13.20
2018-02-27T19:44:02.970Z,12.67
2018-02-27T19:46:30.460Z,13.20
2018-02-27T19:48:58.062Z,13.80
2018-02-27T19:51:25.578Z,12.77
2018-02-27T19:53:53.064Z,13.67
2018-02-27T19:56:20.692Z,13.23
2018-02-27T19:58:48.186Z,13.33
2018-02-27T20:01:15.776Z,13.67
2018-02-27T20:03:43.325Z,14.40
2018-02-27T20:06:10.970Z,15.00
2018-02-27T20:08:38.535Z,12.93
2018-02-27T20:11:06.029Z,15.30
2018-02-27T20:13:33.510Z,13.80
2018-02-27T20:16:01.092Z,15.87
2018-02-27T20:18:28.735Z,14.10
2018-02-27T20:20:56.283Z,15.03
2018-02-27T20:23:29.435Z,13.80
2018-02-27T20:25:56.917Z,13.60
2018-02-27T20:28:29.914Z,14.20
2018-02-27T20:30:57.522Z,16.20
2018-02-27T20:33:25.041Z,13.70
2018-02-27T20:35:52.567Z,17.00
2018-02-27T20:41:19.065Z,16.37
2018-02-27T20:43:47.161Z,15.10
2018-02-27T20:46:14.670Z,17.77
2018-02-27T20:48:42.197Z,15.73
2018-02-27T20:51:09.719Z,16.77
2018-02-27T20:53:42.305Z,14.03
2018-02-27T20:56:09.881Z,17.00
2018-02-27T20:58:37.363Z,14.10
2018-02-27T21:01:04.879Z,15.77
2018-02-27T21:03:32.420Z,14.47
2018-02-27T21:05:59.909Z,14.30
2018-02-27T21:08:27.408Z,13.33
2018-02-27T21:10:54.880Z,15.30
2018-02-27T21:13:22.495Z,14.17
2018-02-27T21:15:51.045Z,16.77
2018-02-27T21:18:18.553Z,15.43
2018-02-27T21:20:46.061Z,18.23
2018-02-27T21:23:13.528Z,15.13
2018-02-27T21:25:41.031Z,17.67
2018-02-27T21:28:08.511Z,15.70
2018-02-27T21:30:36.018Z,17.33
2018-02-27T21:33:03.586Z,15.33
2018-02-27T21:35:31.073Z,15.83
2018-02-27T21:37:58.633Z,14.63
2018-02-27T21:40:26.179Z,18.00
2018-02-27T21:42:53.732Z,15.80
2018-02-27T21:45:21.377Z,18.57
2018-02-27T21:47:48.879Z,14.00
2018-02-27T21:50:16.393Z,16.07
2018-02-27T21:52:43.881Z,14.87
2018-02-27T21:55:11.409Z,17.37
2018-02-27T21:57:38.902Z,15.13
2018-02-27T22:00:06.435Z,15.97
2018-02-27T22:02:34.691Z,17.20
2018-02-27T22:05:02.256Z,18.00
2018-02-27T22:07:30.052Z,16.87
2018-02-27T22:09:57.561Z,15.43
2018-02-27T22:12:25.120Z,16.40
2018-02-27T22:14:52.928Z,16.03
2018-02-27T22:17:20.465Z,15.60
2018-02-27T22:19:47.998Z,16.63
2018-02-27T22:22:15.499Z,15.30
2018-02-27T22:24:43.073Z,14.93
2018-02-27T22:27:10.533Z,14.90
2018-02-27T22:29:38.049Z,15.47
2018-02-27T22:32:05.582Z,14.70
2018-02-27T22:34:33.028Z,15.87
2018-02-27T22:37:00.620Z,16.70
2018-02-27T22:39:28.126Z,16.07
2018-02-27T22:41:55.717Z,15.93
2018-02-27T22:44:23.272Z,15.70
2018-02-27T22:46:50.788Z,17.00
2018-02-27T22:49:18.282Z,16.17
2018-02-27T22:51:45.834Z,15.67
2018-02-27T22:54:13.318Z,16.47
2018-02-27T22:56:40.788Z,16.07
2018-02-27T22:59:10.522Z,15.47
2018-02-27T23:01:38.324Z,15.20
2018-02-27T23:04:05.837Z,15.73
2018-02-27T23:06:33.338Z,15.57
2018-02-27T23:09:00.803Z,16.03
2018-02-27T23:11:28.319Z,15.37
2018-02-27T23:13:55.844Z,17.93
2018-02-27T23:16:23.338Z,16.17
2018-02-27T23:18:50.845Z,15.10
2018-02-27T23:21:18.368Z,15.87
2018-02-27T23:23:47.536Z,16.87
2018-02-27T23:26:27.360Z,17.60
2018-02-27T23:28:55.452Z,16.30
2018-02-27T23:31:23.014Z,16.53
2018-02-27T23:34:04.986Z,16.47
2018-02-27T23:36:32.497Z,16.37
2018-02-27T23:39:00.031Z,16.13
2018-02-27T23:41:27.537Z,15.63
2018-02-27T23:43:54.991Z,17.10
2018-02-27T23:46:22.452Z,15.07
2018-02-27T23:48:49.916Z,16.40
2018-02-27T23:51:17.518Z,14.87
2018-02-27T23:53:49.989Z,15.70
2018-02-27T23:56:17.446Z,15.60
2018-02-27T23:58:44.904Z,16.47
